sensor_id;sensor_type;location;lat;lon;timestamp;P1;durP1;ratioP1;P2;durP2;ratioP2
18999;SDS011;9633;50.980;13.850;2023-11-19T00:00:47;17.53;;;12.30;;
18999;SDS011;9633;50.980;13.850;2023-11-19T00:02:24;19.03;;;11.93;;
18999;SDS011;9633;50.980;13.850;2023-11-19T00:03:57;21.00;;;13.23;;
18999;SDS011;9633;50.980;13.850;2023-11-19T00:05:30;17.43;;;12.10;;
18999;SDS011;9633;50.980;13.850;2023-11-19T00:07:02;17.23;;;12.30;;
18999;SDS011;9633;50.980;13.850;2023-11-19T00:08:37;18.00;;;12.83;;
18999;SDS011;9633;50.980;13.850;2023-11-19T00:10:11;18.03;;;12.60;;
18999;SDS011;9633;50.980;13.850;2023-11-19T00:11:44;19.27;;;13.30;;
18999;SDS011;9633;50.980;13.850;2023-11-19T00:13:22;20.17;;;13.53;;
18999;SDS011;9633;50.980;13.850;2023-11-19T00:14:55;19.53;;;13.67;;
18999;SDS011;9633;50.980;13.850;2023-11-19T00:16:28;18.10;;;13.17;;
18999;SDS011;9633;50.980;13.850;2023-11-19T00:18:00;18.63;;;13.67;;
18999;SDS011;9633;50.980;13.850;2023-11-19T00:19:36;19.07;;;13.43;;
18999;SDS011;9633;50.980;13.850;2023-11-19T00:21:08;19.27;;;13.20;;
18999;SDS011;9633;50.980;13.850;2023-11-19T00:22:42;19.10;;;12.73;;
18999;SDS011;9633;50.980;13.850;2023-11-19T00:24:17;17.70;;;12.73;;
18999;SDS011;9633;50.980;13.850;2023-11-19T00:25:51;18.07;;;12.73;;
18999;SDS011;9633;50.980;13.850;2023-11-19T00:27:24;17.90;;;12.70;;
18999;SDS011;9633;50.980;13.850;2023-11-19T00:28:58;17.63;;;12.70;;
18999;SDS011;9633;50.980;13.850;2023-11-19T00:30:31;17.53;;;12.10;;
18999;SDS011;9633;50.980;13.850;2023-11-19T00:32:04;15.13;;;11.83;;
18999;SDS011;9633;50.980;13.850;2023-11-19T00:33:37;17.33;;;12.00;;
18999;SDS011;9633;50.980;13.850;2023-11-19T00:35:21;17.83;;;11.97;;
18999;SDS011;9633;50.980;13.850;2023-11-19T00:36:54;16.70;;;11.53;;
18999;SDS011;9633;50.980;13.850;2023-11-19T00:38:27;16.63;;;11.50;;
18999;SDS011;9633;50.980;13.850;2023-11-19T00:40:00;16.97;;;11.83;;
18999;SDS011;9633;50.980;13.850;2023-11-19T00:41:32;15.73;;;11.67;;
18999;SDS011;9633;50.980;13.850;2023-11-19T00:43:06;16.30;;;10.70;;
18999;SDS011;9633;50.980;13.850;2023-11-19T00:44:40;13.60;;;10.50;;
18999;SDS011;9633;50.980;13.850;2023-11-19T00:46:21;14.10;;;10.30;;
18999;SDS011;9633;50.980;13.850;2023-11-19T00:47:54;13.80;;;10.43;;
18999;SDS011;9633;50.980;13.850;2023-11-19T00:49:27;15.87;;;11.23;;
18999;SDS011;9633;50.980;13.850;2023-11-19T00:50:59;13.50;;;10.53;;
18999;SDS011;9633;50.980;13.850;2023-11-19T00:52:32;13.50;;;10.03;;
18999;SDS011;9633;50.980;13.850;2023-11-19T00:54:05;14.50;;;10.33;;
18999;SDS011;9633;50.980;13.850;2023-11-19T00:55:38;13.93;;;10.57;;
18999;SDS011;9633;50.980;13.850;2023-11-19T00:57:13;15.67;;;10.67;;
18999;SDS011;9633;50.980;13.850;2023-11-19T00:58:46;14.37;;;10.47;;
18999;SDS011;9633;50.980;13.850;2023-11-19T01:00:20;14.77;;;10.77;;
18999;SDS011;9633;50.980;13.850;2023-11-19T01:01:55;11.93;;;9.27;;
18999;SDS011;9633;50.980;13.850;2023-11-19T01:03:28;15.83;;;9.90;;
18999;SDS011;9633;50.980;13.850;2023-11-19T01:05:01;12.97;;;9.60;;
18999;SDS011;9633;50.980;13.850;2023-11-19T01:06:33;11.43;;;9.03;;
18999;SDS011;9633;50.980;13.850;2023-11-19T01:08:06;10.53;;;8.57;;
18999;SDS011;9633;50.980;13.850;2023-11-19T01:09:41;12.77;;;9.10;;
18999;SDS011;9633;50.980;13.850;2023-11-19T01:11:19;12.73;;;8.87;;
18999;SDS011;9633;50.980;13.850;2023-11-19T01:12:53;11.13;;;8.93;;
18999;SDS011;9633;50.980;13.850;2023-11-19T01:14:26;11.13;;;8.43;;
18999;SDS011;9633;50.980;13.850;2023-11-19T01:16:00;12.87;;;9.50;;
18999;SDS011;9633;50.980;13.850;2023-11-19T01:17:34;10.63;;;8.87;;
18999;SDS011;9633;50.980;13.850;2023-11-19T01:19:07;11.40;;;7.73;;
18999;SDS011;9633;50.980;13.850;2023-11-19T01:20:48;11.07;;;8.37;;
18999;SDS011;9633;50.980;13.850;2023-11-19T01:22:20;10.70;;;8.40;;
18999;SDS011;9633;50.980;13.850;2023-11-19T01:23:54;10.87;;;7.80;;
18999;SDS011;9633;50.980;13.850;2023-11-19T01:25:27;11.17;;;8.10;;
18999;SDS011;9633;50.980;13.850;2023-11-19T01:27:00;9.37;;;7.33;;
18999;SDS011;9633;50.980;13.850;2023-11-19T01:28:33;11.67;;;7.73;;
18999;SDS011;9633;50.980;13.850;2023-11-19T01:30:06;10.37;;;7.60;;
18999;SDS011;9633;50.980;13.850;2023-11-19T01:31:42;9.17;;;6.90;;
18999;SDS011;9633;50.980;13.850;2023-11-19T01:33:17;8.23;;;6.87;;
18999;SDS011;9633;50.980;13.850;2023-11-19T01:34:49;9.90;;;7.07;;
18999;SDS011;9633;50.980;13.850;2023-11-19T01:36:22;9.77;;;7.30;;
18999;SDS011;9633;50.980;13.850;2023-11-19T01:37:55;7.37;;;6.00;;
18999;SDS011;9633;50.980;13.850;2023-11-19T01:39:28;8.00;;;6.33;;
18999;SDS011;9633;50.980;13.850;2023-11-19T01:41:00;9.73;;;6.40;;
18999;SDS011;9633;50.980;13.850;2023-11-19T01:42:36;7.60;;;6.17;;
18999;SDS011;9633;50.980;13.850;2023-11-19T01:44:08;8.10;;;6.00;;
18999;SDS011;9633;50.980;13.850;2023-11-19T01:45:44;6.93;;;5.67;;
18999;SDS011;9633;50.980;13.850;2023-11-19T01:47:17;5.47;;;4.73;;
18999;SDS011;9633;50.980;13.850;2023-11-19T01:48:51;7.03;;;5.27;;
18999;SDS011;9633;50.980;13.850;2023-11-19T01:50:25;6.47;;;5.30;;
18999;SDS011;9633;50.980;13.850;2023-11-19T01:51:59;7.30;;;5.47;;
18999;SDS011;9633;50.980;13.850;2023-11-19T01:53:32;6.90;;;5.33;;
18999;SDS011;9633;50.980;13.850;2023-11-19T01:55:07;5.70;;;4.83;;
18999;SDS011;9633;50.980;13.850;2023-11-19T01:56:42;6.53;;;5.17;;
18999;SDS011;9633;50.980;13.850;2023-11-19T01:58:15;6.07;;;4.63;;
18999;SDS011;9633;50.980;13.850;2023-11-19T01:59:49;6.13;;;4.40;;
18999;SDS011;9633;50.980;13.850;2023-11-19T02:01:23;5.73;;;3.90;;
18999;SDS011;9633;50.980;13.850;2023-11-19T02:02:57;4.57;;;3.70;;
18999;SDS011;9633;50.980;13.850;2023-11-19T02:04:31;4.50;;;3.53;;
18999;SDS011;9633;50.980;13.850;2023-11-19T02:06:04;3.43;;;2.87;;
18999;SDS011;9633;50.980;13.850;2023-11-19T02:07:38;2.63;;;2.23;;
18999;SDS011;9633;50.980;13.850;2023-11-19T02:09:11;3.00;;;2.60;;
18999;SDS011;9633;50.980;13.850;2023-11-19T02:10:44;3.00;;;2.70;;
18999;SDS011;9633;50.980;13.850;2023-11-19T02:12:17;3.10;;;2.60;;
18999;SDS011;9633;50.980;13.850;2023-11-19T02:13:52;3.13;;;2.60;;
18999;SDS011;9633;50.980;13.850;2023-11-19T02:15:24;3.60;;;2.60;;
18999;SDS011;9633;50.980;13.850;2023-11-19T02:16:57;2.50;;;2.27;;
18999;SDS011;9633;50.980;13.850;2023-11-19T02:18:31;3.13;;;2.40;;
18999;SDS011;9633;50.980;13.850;2023-11-19T02:20:04;3.17;;;2.80;;
18999;SDS011;9633;50.980;13.850;2023-11-19T02:21:38;2.90;;;2.43;;
18999;SDS011;9633;50.980;13.850;2023-11-19T02:23:13;3.20;;;2.70;;
18999;SDS011;9633;50.980;13.850;2023-11-19T02:24:45;3.43;;;3.13;;
18999;SDS011;9633;50.980;13.850;2023-11-19T02:26:22;3.80;;;3.20;;
18999;SDS011;9633;50.980;13.850;2023-11-19T02:28:03;3.80;;;3.13;;
18999;SDS011;9633;50.980;13.850;2023-11-19T02:29:36;4.73;;;3.30;;
18999;SDS011;9633;50.980;13.850;2023-11-19T02:31:10;3.80;;;3.00;;
18999;SDS011;9633;50.980;13.850;2023-11-19T02:32:43;4.73;;;3.50;;
18999;SDS011;9633;50.980;13.850;2023-11-19T02:34:15;4.30;;;3.00;;
18999;SDS011;9633;50.980;13.850;2023-11-19T02:35:49;4.00;;;3.20;;
18999;SDS011;9633;50.980;13.850;2023-11-19T02:37:21;4.63;;;3.20;;
18999;SDS011;9633;50.980;13.850;2023-11-19T02:38:54;3.60;;;3.10;;
18999;SDS011;9633;50.980;13.850;2023-11-19T02:40:27;4.60;;;3.57;;
18999;SDS011;9633;50.980;13.850;2023-11-19T02:42:00;3.90;;;3.17;;
18999;SDS011;9633;50.980;13.850;2023-11-19T02:43:35;4.83;;;3.57;;
18999;SDS011;9633;50.980;13.850;2023-11-19T02:45:10;4.80;;;2.87;;
18999;SDS011;9633;50.980;13.850;2023-11-19T02:46:45;3.97;;;3.53;;
18999;SDS011;9633;50.980;13.850;2023-11-19T02:48:19;4.33;;;2.87;;
18999;SDS011;9633;50.980;13.850;2023-11-19T02:49:52;4.03;;;3.07;;
18999;SDS011;9633;50.980;13.850;2023-11-19T02:51:26;4.70;;;3.33;;
18999;SDS011;9633;50.980;13.850;2023-11-19T02:52:59;4.73;;;3.47;;
18999;SDS011;9633;50.980;13.850;2023-11-19T02:54:32;4.07;;;2.83;;
18999;SDS011;9633;50.980;13.850;2023-11-19T02:56:07;4.07;;;2.93;;
18999;SDS011;9633;50.980;13.850;2023-11-19T02:57:47;3.20;;;2.90;;
18999;SDS011;9633;50.980;13.850;2023-11-19T02:59:22;4.87;;;3.27;;
18999;SDS011;9633;50.980;13.850;2023-11-19T03:00:59;4.30;;;3.00;;
18999;SDS011;9633;50.980;13.850;2023-11-19T03:02:41;2.57;;;2.37;;
18999;SDS011;9633;50.980;13.850;2023-11-19T03:04:16;4.47;;;2.70;;
18999;SDS011;9633;50.980;13.850;2023-11-19T03:05:51;4.07;;;2.70;;
18999;SDS011;9633;50.980;13.850;2023-11-19T03:07:24;3.47;;;3.00;;
18999;SDS011;9633;50.980;13.850;2023-11-19T03:08:57;4.67;;;2.70;;
18999;SDS011;9633;50.980;13.850;2023-11-19T03:10:29;3.20;;;2.50;;
18999;SDS011;9633;50.980;13.850;2023-11-19T03:12:03;3.03;;;2.53;;
18999;SDS011;9633;50.980;13.850;2023-11-19T03:13:38;2.87;;;2.57;;
18999;SDS011;9633;50.980;13.850;2023-11-19T03:15:12;3.30;;;2.90;;
18999;SDS011;9633;50.980;13.850;2023-11-19T03:16:44;4.03;;;2.73;;
18999;SDS011;9633;50.980;13.850;2023-11-19T03:18:18;3.70;;;2.67;;
18999;SDS011;9633;50.980;13.850;2023-11-19T03:19:51;4.37;;;2.80;;
18999;SDS011;9633;50.980;13.850;2023-11-19T03:21:27;3.10;;;2.40;;
18999;SDS011;9633;50.980;13.850;2023-11-19T03:23:01;4.03;;;3.20;;
18999;SDS011;9633;50.980;13.850;2023-11-19T03:24:33;4.20;;;3.43;;
18999;SDS011;9633;50.980;13.850;2023-11-19T03:26:07;3.60;;;3.27;;
18999;SDS011;9633;50.980;13.850;2023-11-19T03:27:43;3.40;;;2.77;;
18999;SDS011;9633;50.980;13.850;2023-11-19T03:29:15;3.73;;;2.90;;
18999;SDS011;9633;50.980;13.850;2023-11-19T03:30:50;2.80;;;2.50;;
18999;SDS011;9633;50.980;13.850;2023-11-19T03:32:22;3.93;;;2.97;;
18999;SDS011;9633;50.980;13.850;2023-11-19T03:33:56;3.27;;;2.97;;
18999;SDS011;9633;50.980;13.850;2023-11-19T03:35:30;4.00;;;3.10;;
18999;SDS011;9633;50.980;13.850;2023-11-19T03:37:04;3.90;;;3.40;;
18999;SDS011;9633;50.980;13.850;2023-11-19T03:38:36;4.50;;;3.40;;
18999;SDS011;9633;50.980;13.850;2023-11-19T03:40:14;4.47;;;4.03;;
18999;SDS011;9633;50.980;13.850;2023-11-19T03:41:46;4.43;;;3.40;;
18999;SDS011;9633;50.980;13.850;2023-11-19T03:43:19;5.23;;;3.60;;
18999;SDS011;9633;50.980;13.850;2023-11-19T03:44:51;5.13;;;3.37;;
18999;SDS011;9633;50.980;13.850;2023-11-19T03:46:26;5.30;;;3.87;;
18999;SDS011;9633;50.980;13.850;2023-11-19T03:48:05;4.27;;;3.53;;
18999;SDS011;9633;50.980;13.850;2023-11-19T03:49:38;5.03;;;3.73;;
18999;SDS011;9633;50.980;13.850;2023-11-19T03:51:10;4.90;;;3.80;;
18999;SDS011;9633;50.980;13.850;2023-11-19T03:52:46;5.00;;;4.20;;
18999;SDS011;9633;50.980;13.850;2023-11-19T03:54:20;4.67;;;3.90;;
18999;SDS011;9633;50.980;13.850;2023-11-19T03:55:54;5.73;;;4.50;;
18999;SDS011;9633;50.980;13.850;2023-11-19T03:57:27;5.37;;;4.17;;
18999;SDS011;9633;50.980;13.850;2023-11-19T03:59:00;4.30;;;3.83;;
18999;SDS011;9633;50.980;13.850;2023-11-19T04:00:33;6.93;;;4.37;;
18999;SDS011;9633;50.980;13.850;2023-11-19T04:02:08;5.97;;;4.30;;
18999;SDS011;9633;50.980;13.850;2023-11-19T04:03:40;5.40;;;4.33;;
18999;SDS011;9633;50.980;13.850;2023-11-19T04:05:16;6.07;;;4.80;;
18999;SDS011;9633;50.980;13.850;2023-11-19T04:06:50;5.77;;;4.47;;
18999;SDS011;9633;50.980;13.850;2023-11-19T04:08:23;5.67;;;4.57;;
18999;SDS011;9633;50.980;13.850;2023-11-19T04:09:55;5.90;;;4.23;;
18999;SDS011;9633;50.980;13.850;2023-11-19T04:11:29;6.47;;;4.20;;
18999;SDS011;9633;50.980;13.850;2023-11-19T04:13:01;5.40;;;4.23;;
18999;SDS011;9633;50.980;13.850;2023-11-19T04:14:35;5.30;;;4.17;;
18999;SDS011;9633;50.980;13.850;2023-11-19T04:16:08;5.37;;;4.10;;
18999;SDS011;9633;50.980;13.850;2023-11-19T04:17:42;6.87;;;4.20;;
18999;SDS011;9633;50.980;13.850;2023-11-19T04:19:16;4.63;;;3.87;;
18999;SDS011;9633;50.980;13.850;2023-11-19T04:20:48;4.50;;;3.90;;
18999;SDS011;9633;50.980;13.850;2023-11-19T04:22:22;5.07;;;3.80;;
18999;SDS011;9633;50.980;13.850;2023-11-19T04:23:55;5.00;;;3.77;;
18999;SDS011;9633;50.980;13.850;2023-11-19T04:25:29;4.17;;;3.60;;
18999;SDS011;9633;50.980;13.850;2023-11-19T04:27:01;5.60;;;4.30;;
18999;SDS011;9633;50.980;13.850;2023-11-19T04:28:34;4.83;;;3.87;;
18999;SDS011;9633;50.980;13.850;2023-11-19T04:30:07;5.17;;;3.80;;
18999;SDS011;9633;50.980;13.850;2023-11-19T04:31:42;4.97;;;4.20;;
18999;SDS011;9633;50.980;13.850;2023-11-19T04:33:17;4.30;;;3.50;;
18999;SDS011;9633;50.980;13.850;2023-11-19T04:34:50;4.80;;;4.00;;
18999;SDS011;9633;50.980;13.850;2023-11-19T04:36:22;5.13;;;3.70;;
18999;SDS011;9633;50.980;13.850;2023-11-19T04:37:56;4.10;;;3.70;;
18999;SDS011;9633;50.980;13.850;2023-11-19T04:39:29;4.67;;;3.80;;
18999;SDS011;9633;50.980;13.850;2023-11-19T04:41:02;6.20;;;3.70;;
18999;SDS011;9633;50.980;13.850;2023-11-19T04:42:36;4.97;;;3.73;;
18999;SDS011;9633;50.980;13.850;2023-11-19T04:44:11;5.33;;;3.53;;
18999;SDS011;9633;50.980;13.850;2023-11-19T04:45:44;5.00;;;3.77;;
18999;SDS011;9633;50.980;13.850;2023-11-19T04:47:17;4.77;;;3.80;;
18999;SDS011;9633;50.980;13.850;2023-11-19T04:48:51;4.23;;;3.67;;
18999;SDS011;9633;50.980;13.850;2023-11-19T04:50:24;4.97;;;4.00;;
18999;SDS011;9633;50.980;13.850;2023-11-19T04:51:58;7.03;;;4.53;;
18999;SDS011;9633;50.980;13.850;2023-11-19T04:53:30;5.03;;;4.23;;
18999;SDS011;9633;50.980;13.850;2023-11-19T04:55:04;6.87;;;4.17;;
18999;SDS011;9633;50.980;13.850;2023-11-19T04:56:37;7.43;;;4.43;;
18999;SDS011;9633;50.980;13.850;2023-11-19T04:58:11;4.93;;;4.27;;
18999;SDS011;9633;50.980;13.850;2023-11-19T04:59:43;4.70;;;4.20;;
18999;SDS011;9633;50.980;13.850;2023-11-19T05:01:16;7.33;;;4.80;;
18999;SDS011;9633;50.980;13.850;2023-11-19T05:02:49;5.27;;;4.73;;
18999;SDS011;9633;50.980;13.850;2023-11-19T05:04:23;6.20;;;4.87;;
18999;SDS011;9633;50.980;13.850;2023-11-19T05:05:56;4.97;;;4.47;;
18999;SDS011;9633;50.980;13.850;2023-11-19T05:07:29;5.17;;;4.63;;
18999;SDS011;9633;50.980;13.850;2023-11-19T05:09:01;7.63;;;5.40;;
18999;SDS011;9633;50.980;13.850;2023-11-19T05:10:37;6.63;;;5.20;;
18999;SDS011;9633;50.980;13.850;2023-11-19T05:12:09;7.13;;;5.30;;
18999;SDS011;9633;50.980;13.850;2023-11-19T05:13:43;6.90;;;5.27;;
18999;SDS011;9633;50.980;13.850;2023-11-19T05:15:17;7.10;;;5.37;;
18999;SDS011;9633;50.980;13.850;2023-11-19T05:16:50;6.93;;;5.43;;
18999;SDS011;9633;50.980;13.850;2023-11-19T05:18:22;8.03;;;6.03;;
18999;SDS011;9633;50.980;13.850;2023-11-19T05:19:57;6.33;;;5.23;;
18999;SDS011;9633;50.980;13.850;2023-11-19T05:21:29;7.73;;;6.17;;
18999;SDS011;9633;50.980;13.850;2023-11-19T05:23:02;6.93;;;5.60;;
18999;SDS011;9633;50.980;13.850;2023-11-19T05:24:35;10.73;;;6.30;;
18999;SDS011;9633;50.980;13.850;2023-11-19T05:26:08;8.83;;;6.47;;
18999;SDS011;9633;50.980;13.850;2023-11-19T05:27:40;9.17;;;6.40;;
18999;SDS011;9633;50.980;13.850;2023-11-19T05:29:13;8.97;;;6.17;;
18999;SDS011;9633;50.980;13.850;2023-11-19T05:30:46;10.43;;;5.90;;
18999;SDS011;9633;50.980;13.850;2023-11-19T05:32:19;7.73;;;6.13;;
18999;SDS011;9633;50.980;13.850;2023-11-19T05:33:51;9.20;;;6.77;;
18999;SDS011;9633;50.980;13.850;2023-11-19T05:35:26;9.50;;;6.53;;
18999;SDS011;9633;50.980;13.850;2023-11-19T05:36:58;9.13;;;6.93;;
18999;SDS011;9633;50.980;13.850;2023-11-19T05:38:31;11.77;;;7.97;;
18999;SDS011;9633;50.980;13.850;2023-11-19T05:40:04;10.20;;;6.93;;
18999;SDS011;9633;50.980;13.850;2023-11-19T05:41:45;9.30;;;6.63;;
18999;SDS011;9633;50.980;13.850;2023-11-19T05:43:19;10.60;;;7.87;;
18999;SDS011;9633;50.980;13.850;2023-11-19T05:44:51;12.17;;;7.90;;
18999;SDS011;9633;50.980;13.850;2023-11-19T05:46:24;10.03;;;7.57;;
18999;SDS011;9633;50.980;13.850;2023-11-19T05:47:57;11.60;;;8.03;;
18999;SDS011;9633;50.980;13.850;2023-11-19T05:49:31;10.63;;;7.50;;
18999;SDS011;9633;50.980;13.850;2023-11-19T05:51:04;10.93;;;7.60;;
18999;SDS011;9633;50.980;13.850;2023-11-19T05:52:38;12.17;;;8.07;;
18999;SDS011;9633;50.980;13.850;2023-11-19T05:54:10;10.37;;;7.30;;
18999;SDS011;9633;50.980;13.850;2023-11-19T05:55:45;11.97;;;8.43;;
18999;SDS011;9633;50.980;13.850;2023-11-19T05:57:20;10.90;;;8.20;;
18999;SDS011;9633;50.980;13.850;2023-11-19T05:58:56;12.47;;;8.57;;
18999;SDS011;9633;50.980;13.850;2023-11-19T06:00:28;13.10;;;9.20;;
18999;SDS011;9633;50.980;13.850;2023-11-19T06:02:02;13.37;;;9.47;;
18999;SDS011;9633;50.980;13.850;2023-11-19T06:03:34;11.03;;;8.30;;
18999;SDS011;9633;50.980;13.850;2023-11-19T06:05:08;11.37;;;8.20;;
18999;SDS011;9633;50.980;13.850;2023-11-19T06:06:42;10.60;;;7.70;;
18999;SDS011;9633;50.980;13.850;2023-11-19T06:08:15;10.37;;;7.80;;
18999;SDS011;9633;50.980;13.850;2023-11-19T06:09:48;10.37;;;7.93;;
18999;SDS011;9633;50.980;13.850;2023-11-19T06:11:21;10.50;;;7.50;;
18999;SDS011;9633;50.980;13.850;2023-11-19T06:12:53;9.63;;;7.53;;
18999;SDS011;9633;50.980;13.850;2023-11-19T06:14:27;11.97;;;8.03;;
18999;SDS011;9633;50.980;13.850;2023-11-19T06:15:59;10.10;;;7.67;;
18999;SDS011;9633;50.980;13.850;2023-11-19T06:17:34;10.57;;;7.33;;
18999;SDS011;9633;50.980;13.850;2023-11-19T06:19:07;9.60;;;7.80;;
18999;SDS011;9633;50.980;13.850;2023-11-19T06:20:40;10.33;;;7.73;;
18999;SDS011;9633;50.980;13.850;2023-11-19T06:22:15;9.30;;;7.30;;
18999;SDS011;9633;50.980;13.850;2023-11-19T06:23:48;11.97;;;7.57;;
18999;SDS011;9633;50.980;13.850;2023-11-19T06:25:23;9.00;;;7.00;;
18999;SDS011;9633;50.980;13.850;2023-11-19T06:26:55;11.00;;;8.07;;
18999;SDS011;9633;50.980;13.850;2023-11-19T06:28:29;9.90;;;7.07;;
18999;SDS011;9633;50.980;13.850;2023-11-19T06:30:01;9.80;;;7.17;;
18999;SDS011;9633;50.980;13.850;2023-11-19T06:31:35;10.50;;;7.00;;
18999;SDS011;9633;50.980;13.850;2023-11-19T06:33:08;9.47;;;6.50;;
18999;SDS011;9633;50.980;13.850;2023-11-19T06:34:41;8.13;;;6.43;;
18999;SDS011;9633;50.980;13.850;2023-11-19T06:36:14;9.33;;;6.63;;
18999;SDS011;9633;50.980;13.850;2023-11-19T06:37:50;8.17;;;6.23;;
18999;SDS011;9633;50.980;13.850;2023-11-19T06:39:22;9.33;;;6.87;;
18999;SDS011;9633;50.980;13.850;2023-11-19T06:40:56;9.87;;;6.90;;
18999;SDS011;9633;50.980;13.850;2023-11-19T06:42:28;9.47;;;7.10;;
18999;SDS011;9633;50.980;13.850;2023-11-19T06:44:01;7.40;;;6.03;;
18999;SDS011;9633;50.980;13.850;2023-11-19T06:45:34;6.93;;;5.97;;
18999;SDS011;9633;50.980;13.850;2023-11-19T06:47:08;8.77;;;6.20;;
18999;SDS011;9633;50.980;13.850;2023-11-19T06:48:40;8.67;;;6.07;;
18999;SDS011;9633;50.980;13.850;2023-11-19T06:50:15;6.93;;;5.53;;
18999;SDS011;9633;50.980;13.850;2023-11-19T06:51:47;7.80;;;5.87;;
18999;SDS011;9633;50.980;13.850;2023-11-19T06:53:22;8.40;;;5.67;;
18999;SDS011;9633;50.980;13.850;2023-11-19T06:54:54;6.50;;;5.40;;
18999;SDS011;9633;50.980;13.850;2023-11-19T06:56:39;8.03;;;5.60;;
18999;SDS011;9633;50.980;13.850;2023-11-19T06:58:13;6.27;;;5.63;;
18999;SDS011;9633;50.980;13.850;2023-11-19T06:59:45;7.30;;;5.50;;
18999;SDS011;9633;50.980;13.850;2023-11-19T07:01:18;5.97;;;5.37;;
18999;SDS011;9633;50.980;13.850;2023-11-19T07:02:51;6.60;;;5.27;;
18999;SDS011;9633;50.980;13.850;2023-11-19T07:04:24;5.90;;;5.30;;
18999;SDS011;9633;50.980;13.850;2023-11-19T07:05:57;6.57;;;5.13;;
18999;SDS011;9633;50.980;13.850;2023-11-19T07:07:30;6.43;;;5.70;;
18999;SDS011;9633;50.980;13.850;2023-11-19T07:09:04;5.80;;;4.73;;
18999;SDS011;9633;50.980;13.850;2023-11-19T07:10:42;5.50;;;4.67;;
18999;SDS011;9633;50.980;13.850;2023-11-19T07:12:14;5.83;;;4.27;;
18999;SDS011;9633;50.980;13.850;2023-11-19T07:13:47;6.27;;;4.60;;
18999;SDS011;9633;50.980;13.850;2023-11-19T07:15:19;6.20;;;4.87;;
18999;SDS011;9633;50.980;13.850;2023-11-19T07:16:52;5.83;;;4.80;;
18999;SDS011;9633;50.980;13.850;2023-11-19T07:18:25;5.50;;;4.23;;
18999;SDS011;9633;50.980;13.850;2023-11-19T07:19:58;5.93;;;4.50;;
18999;SDS011;9633;50.980;13.850;2023-11-19T07:21:31;6.37;;;4.47;;
18999;SDS011;9633;50.980;13.850;2023-11-19T07:23:05;6.00;;;4.90;;
18999;SDS011;9633;50.980;13.850;2023-11-19T07:24:40;6.00;;;4.33;;
18999;SDS011;9633;50.980;13.850;2023-11-19T07:26:12;5.80;;;4.40;;
18999;SDS011;9633;50.980;13.850;2023-11-19T07:27:45;6.73;;;5.17;;
18999;SDS011;9633;50.980;13.850;2023-11-19T07:29:19;5.33;;;4.00;;
18999;SDS011;9633;50.980;13.850;2023-11-19T07:30:56;6.77;;;5.03;;
18999;SDS011;9633;50.980;13.850;2023-11-19T07:32:29;5.37;;;4.27;;
18999;SDS011;9633;50.980;13.850;2023-11-19T07:34:01;5.33;;;4.20;;
18999;SDS011;9633;50.980;13.850;2023-11-19T07:35:34;5.33;;;4.53;;
18999;SDS011;9633;50.980;13.850;2023-11-19T07:37:07;5.30;;;4.57;;
18999;SDS011;9633;50.980;13.850;2023-11-19T07:38:40;5.67;;;4.43;;
18999;SDS011;9633;50.980;13.850;2023-11-19T07:40:14;5.90;;;4.67;;
18999;SDS011;9633;50.980;13.850;2023-11-19T07:41:47;6.60;;;4.60;;
18999;SDS011;9633;50.980;13.850;2023-11-19T07:43:20;7.67;;;5.50;;
18999;SDS011;9633;50.980;13.850;2023-11-19T07:44:52;7.53;;;5.53;;
18999;SDS011;9633;50.980;13.850;2023-11-19T07:46:27;6.40;;;5.60;;
18999;SDS011;9633;50.980;13.850;2023-11-19T07:47:59;7.50;;;5.60;;
18999;SDS011;9633;50.980;13.850;2023-11-19T07:49:33;7.23;;;5.50;;
18999;SDS011;9633;50.980;13.850;2023-11-19T07:51:05;6.20;;;4.77;;
18999;SDS011;9633;50.980;13.850;2023-11-19T07:52:39;6.03;;;4.63;;
18999;SDS011;9633;50.980;13.850;2023-11-19T07:54:11;6.33;;;5.37;;
18999;SDS011;9633;50.980;13.850;2023-11-19T07:55:46;6.63;;;5.30;;
18999;SDS011;9633;50.980;13.850;2023-11-19T07:57:18;6.37;;;5.47;;
18999;SDS011;9633;50.980;13.850;2023-11-19T07:58:52;7.73;;;5.80;;
18999;SDS011;9633;50.980;13.850;2023-11-19T08:00:24;6.73;;;4.90;;
18999;SDS011;9633;50.980;13.850;2023-11-19T08:01:58;6.20;;;5.03;;
18999;SDS011;9633;50.980;13.850;2023-11-19T08:03:31;6.60;;;5.13;;
18999;SDS011;9633;50.980;13.850;2023-11-19T08:05:04;6.37;;;4.63;;
18999;SDS011;9633;50.980;13.850;2023-11-19T08:06:37;6.73;;;4.80;;
18999;SDS011;9633;50.980;13.850;2023-11-19T08:08:10;5.80;;;4.90;;
18999;SDS011;9633;50.980;13.850;2023-11-19T08:09:43;6.97;;;5.90;;
18999;SDS011;9633;50.980;13.850;2023-11-19T08:11:17;5.00;;;4.50;;
18999;SDS011;9633;50.980;13.850;2023-11-19T08:12:51;6.67;;;4.73;;
18999;SDS011;9633;50.980;13.850;2023-11-19T08:14:24;5.47;;;4.67;;
18999;SDS011;9633;50.980;13.850;2023-11-19T08:15:57;7.20;;;5.10;;
18999;SDS011;9633;50.980;13.850;2023-11-19T08:17:29;6.00;;;4.50;;
18999;SDS011;9633;50.980;13.850;2023-11-19T08:19:03;5.37;;;4.23;;
18999;SDS011;9633;50.980;13.850;2023-11-19T08:20:36;5.57;;;4.70;;
18999;SDS011;9633;50.980;13.850;2023-11-19T08:22:09;6.90;;;4.30;;
18999;SDS011;9633;50.980;13.850;2023-11-19T08:23:42;5.97;;;4.70;;
18999;SDS011;9633;50.980;13.850;2023-11-19T08:25:14;6.60;;;4.67;;
18999;SDS011;9633;50.980;13.850;2023-11-19T08:26:49;5.50;;;4.90;;
18999;SDS011;9633;50.980;13.850;2023-11-19T08:28:34;5.53;;;4.97;;
18999;SDS011;9633;50.980;13.850;2023-11-19T08:30:07;7.03;;;5.10;;
18999;SDS011;9633;50.980;13.850;2023-11-19T08:31:40;6.73;;;4.87;;
18999;SDS011;9633;50.980;13.850;2023-11-19T08:33:13;6.97;;;5.40;;
18999;SDS011;9633;50.980;13.850;2023-11-19T08:34:46;5.70;;;4.63;;
18999;SDS011;9633;50.980;13.850;2023-11-19T08:36:19;5.77;;;4.33;;
18999;SDS011;9633;50.980;13.850;2023-11-19T08:37:53;5.17;;;4.50;;
18999;SDS011;9633;50.980;13.850;2023-11-19T08:39:25;5.13;;;4.17;;
18999;SDS011;9633;50.980;13.850;2023-11-19T08:40:58;5.03;;;3.97;;
18999;SDS011;9633;50.980;13.850;2023-11-19T08:42:33;5.03;;;4.43;;
18999;SDS011;9633;50.980;13.850;2023-11-19T08:44:06;4.73;;;4.13;;
18999;SDS011;9633;50.980;13.850;2023-11-19T08:45:38;5.43;;;4.47;;
18999;SDS011;9633;50.980;13.850;2023-11-19T08:47:12;5.17;;;4.37;;
18999;SDS011;9633;50.980;13.850;2023-11-19T08:48:44;5.37;;;4.60;;
18999;SDS011;9633;50.980;13.850;2023-11-19T08:50:18;7.60;;;5.47;;
18999;SDS011;9633;50.980;13.850;2023-11-19T08:51:50;4.40;;;3.60;;
18999;SDS011;9633;50.980;13.850;2023-11-19T08:53:24;4.40;;;3.83;;
18999;SDS011;9633;50.980;13.850;2023-11-19T08:54:56;5.07;;;3.50;;
18999;SDS011;9633;50.980;13.850;2023-11-19T08:56:29;4.10;;;3.50;;
18999;SDS011;9633;50.980;13.850;2023-11-19T08:58:05;6.77;;;3.50;;
18999;SDS011;9633;50.980;13.850;2023-11-19T08:59:39;4.53;;;3.37;;
18999;SDS011;9633;50.980;13.850;2023-11-19T09:01:11;4.07;;;3.47;;
18999;SDS011;9633;50.980;13.850;2023-11-19T09:02:45;3.50;;;3.00;;
18999;SDS011;9633;50.980;13.850;2023-11-19T09:04:18;3.17;;;2.80;;
18999;SDS011;9633;50.980;13.850;2023-11-19T09:05:54;3.30;;;3.00;;
18999;SDS011;9633;50.980;13.850;2023-11-19T09:07:27;4.03;;;3.23;;
18999;SDS011;9633;50.980;13.850;2023-11-19T09:08:59;4.43;;;3.13;;
18999;SDS011;9633;50.980;13.850;2023-11-19T09:10:34;3.77;;;3.30;;
18999;SDS011;9633;50.980;13.850;2023-11-19T09:12:06;3.40;;;3.10;;
18999;SDS011;9633;50.980;13.850;2023-11-19T09:13:41;4.30;;;3.00;;
18999;SDS011;9633;50.980;13.850;2023-11-19T09:15:13;3.57;;;2.77;;
18999;SDS011;9633;50.980;13.850;2023-11-19T09:16:49;5.37;;;4.00;;
18999;SDS011;9633;50.980;13.850;2023-11-19T09:18:21;4.13;;;3.73;;
18999;SDS011;9633;50.980;13.850;2023-11-19T09:19:54;4.63;;;3.77;;
18999;SDS011;9633;50.980;13.850;2023-11-19T09:21:26;6.20;;;3.90;;